Forum - METEO

POST X METEO

Amministratore
F.ranco52 03/10/2021 ore 08:45 Quota

(nessuno) Nowcasting Domenica 3 Ottobre 2021 c

Buongiorno e Buona Domenica a tutti


Notizie Meteo dell'Italia da il Meteo .It


http://ilMeteo.It


la Situazione Italiana vista dal Sat









il Radar Europeo










Brindisi

METAR LIBR 030520Z 23002KT CAVOK 15/13 Q1019=

METAR di Brindisi del 3 alle 5,20z

Vento da 230° W SW 2 nodi (3,704 km) Visibilitā 10000 m
Base delle Nubi e Visibilitā OK
Temp 15°C Dew 13°C Ur 82% hPa 1019

Brindisi

TAF LIBR 030500Z 0306/0406 16010KT 9999 FEW040=

le TAF di Brindisi delle 5z Previsioni dalle 6z alle 6z del 4

Vento da 160° S SE 10 nodi (18,52 km) Visbilitā 10000 m
Copertura 1-2 ottavi da 4000 piedi (1219,2 m)


Gioia del Colle

METAR LIBV 030455Z 20002KT 8000 NSC 12/12 Q1019 RMK BKN SCT130 SCT200 VIS MIN 8000 WIND THR32 16002KT WIND THR14 20002KT BLU=

METAR di Gioia del Colle del 3 alle 4,55z

Vento da 200° S SW 2 nodi (3,704 km) Visubilitā 8000 m
Nessuna Nube Significativa
Temp 12°C Dew 12°C Ur 100% hPa 1019
Aumento della Nuvolositā a 5-7 ottavi
Copertura 3-4 ottavi da 3000 piedi (914,4 m)
Copertura 3-4 ottavi da 20000 piedi (6096 m)
Visibilitā Minima 8000 m

Gioia del Colle

TAF LIBV 030500Z 0306/0315 18005KT 9999 SCT025 BECMG 0310/0312 18015KT=

le TAF di Gioia del Colle delle 5z Previsioni dalle 6z alle 15z

Vento da 180° S 5 nodi (9,26 km) Visibilitā 10000 m)
Copertura 3-4 ottavi da 2500 piedi (762 m)
le Condizioni Diverranno fra le 10z e le 12z
Vento da 180° S 15 nodi (27,78 knm)
2742377
Buongiorno e Buona Domenica a tutti Notizie Meteo dell'Italia da il Meteo .It http://ilMeteo.It la Situazione Italiana vista dal...
Discussione
03/10/2021 08:45:09
none
  • mi piace
    iLikeIt
    PublicVote
    1

Vuoi partecipare anche tu a questa discussione?

Rispondi per lasciare il tuo messaggio in questa discussione